createdAt,value
2023-04-22T00:01:24.425Z,54.23
2023-04-22T00:03:51.350Z,54.25
2023-04-22T00:06:18.252Z,54.79
2023-04-22T00:08:44.579Z,56.11
2023-04-22T00:11:11.170Z,55.52
2023-04-22T00:13:37.586Z,56.53
2023-04-22T00:16:04.561Z,56.83
2023-04-22T00:18:30.964Z,56.67
2023-04-22T00:20:57.285Z,57.10
2023-04-22T00:23:23.622Z,57.09
2023-04-22T00:25:49.979Z,57.53
2023-04-22T00:28:16.522Z,58.60
2023-04-22T00:30:42.857Z,58.18
2023-04-22T00:33:09.506Z,59.31
2023-04-22T00:35:35.910Z,58.41
2023-04-22T00:38:02.298Z,57.51
2023-04-22T00:40:28.737Z,57.88
2023-04-22T00:42:55.073Z,57.63
2023-04-22T00:45:21.742Z,57.67
2023-04-22T00:47:48.540Z,59.05
2023-04-22T00:50:15.290Z,58.72
2023-04-22T00:52:41.626Z,58.78
2023-04-22T00:55:08.271Z,59.20
2023-04-22T00:57:35.757Z,58.92
2023-04-22T01:00:05.234Z,59.47
2023-04-22T01:02:31.857Z,58.67
2023-04-22T01:04:58.386Z,58.56
2023-04-22T01:07:24.705Z,59.40
2023-04-22T01:09:51.064Z,59.55
2023-04-22T01:12:17.445Z,59.96
2023-04-22T01:14:43.806Z,60.27
2023-04-22T01:17:11.042Z,60.91
2023-04-22T01:19:37.841Z,60.53
2023-04-22T01:22:04.418Z,59.72
2023-04-22T01:24:30.818Z,59.04
2023-04-22T01:26:57.164Z,58.50
2023-04-22T01:29:23.514Z,59.52
2023-04-22T01:31:49.881Z,59.82
2023-04-22T01:34:16.273Z,59.24
2023-04-22T01:36:42.603Z,58.78
2023-04-22T01:39:08.982Z,58.69
2023-04-22T01:41:35.786Z,59.35
2023-04-22T01:44:02.714Z,59.51
2023-04-22T01:46:29.219Z,58.83
2023-04-22T01:48:55.681Z,59.10
2023-04-22T01:51:22.079Z,59.42
2023-04-22T01:53:48.664Z,59.43
2023-04-22T01:56:15.212Z,59.21
2023-04-22T01:58:41.555Z,60.19
2023-04-22T02:01:10.192Z,60.01
2023-04-22T02:03:36.655Z,59.46
2023-04-22T02:06:03.091Z,59.58
2023-04-22T02:08:29.506Z,60.53
2023-04-22T02:10:55.934Z,60.90
2023-04-22T02:13:22.337Z,61.35
2023-04-22T02:15:48.696Z,62.00
2023-04-22T02:18:17.900Z,61.89
2023-04-22T02:20:44.538Z,62.03
2023-04-22T02:23:11.381Z,62.23
2023-04-22T02:25:38.147Z,62.38
2023-04-22T02:28:04.482Z,62.69
2023-04-22T02:30:30.891Z,62.83
2023-04-22T02:32:57.293Z,62.04
2023-04-22T02:35:23.700Z,61.73
2023-04-22T02:37:50.273Z,62.79
2023-04-22T02:40:16.638Z,62.75
2023-04-22T02:42:42.979Z,62.38
2023-04-22T02:45:09.566Z,62.31
2023-04-22T02:47:36.149Z,62.72
2023-04-22T02:50:02.500Z,62.73
2023-04-22T02:52:28.869Z,62.57
2023-04-22T02:54:55.202Z,62.28
2023-04-22T02:57:22.178Z,63.83
2023-04-22T02:59:48.588Z,62.94
2023-04-22T03:02:14.992Z,62.76
2023-04-22T03:04:41.549Z,63.03
2023-04-22T03:07:07.955Z,63.28
2023-04-22T03:09:34.290Z,63.02
2023-04-22T03:12:01.005Z,62.08
2023-04-22T03:14:27.377Z,62.72
2023-04-22T03:16:53.795Z,62.21
2023-04-22T03:19:20.179Z,62.67
2023-04-22T03:21:46.572Z,63.30
2023-04-22T03:24:12.951Z,62.54
2023-04-22T03:26:39.282Z,62.79
2023-04-22T03:29:06.017Z,63.19
2023-04-22T03:31:32.397Z,63.79
2023-04-22T03:33:58.893Z,63.29
2023-04-22T03:36:25.319Z,64.05
2023-04-22T03:38:51.885Z,63.35
2023-04-22T03:41:18.263Z,64.28
2023-04-22T03:43:44.683Z,64.41
2023-04-22T03:46:11.157Z,64.16
2023-04-22T03:48:37.512Z,64.32
2023-04-22T03:51:04.060Z,64.09
2023-04-22T03:53:30.499Z,64.48
2023-04-22T03:55:56.850Z,64.80
2023-04-22T03:58:23.258Z,64.35
2023-04-22T04:00:49.584Z,63.93
2023-04-22T04:03:16.143Z,64.91
2023-04-22T04:05:42.880Z,64.90
2023-04-22T04:08:09.312Z,64.17
2023-04-22T04:10:36.447Z,64.66
2023-04-22T04:13:02.900Z,63.96
2023-04-22T04:15:30.522Z,64.55
2023-04-22T04:17:56.972Z,64.17
2023-04-22T04:20:23.441Z,63.87
2023-04-22T04:22:49.763Z,63.13
2023-04-22T04:25:18.259Z,62.94
2023-04-22T04:27:45.583Z,62.67
2023-04-22T04:30:12.126Z,62.58
2023-04-22T04:32:38.954Z,63.12
2023-04-22T04:35:06.166Z,63.23
2023-04-22T04:37:32.508Z,62.57
2023-04-22T04:39:59.345Z,62.32
2023-04-22T04:42:25.827Z,62.63
2023-04-22T04:44:53.654Z,61.78
2023-04-22T04:47:20.128Z,61.98
2023-04-22T04:49:47.218Z,62.56
2023-04-22T04:52:13.569Z,62.10
2023-04-22T04:54:39.966Z,62.20
2023-04-22T04:57:06.580Z,62.49
2023-04-22T04:59:32.958Z,61.94
2023-04-22T05:01:59.387Z,61.83
2023-04-22T05:04:26.155Z,62.35
2023-04-22T05:06:52.730Z,62.44
2023-04-22T05:09:19.068Z,62.21
2023-04-22T05:11:45.512Z,62.07
2023-04-22T05:14:11.837Z,61.76
2023-04-22T05:16:38.224Z,61.75
2023-04-22T05:19:04.646Z,60.88
2023-04-22T05:21:31.512Z,61.35
2023-04-22T05:23:57.895Z,59.98
2023-04-22T05:26:24.292Z,60.38
2023-04-22T05:28:50.654Z,59.29
2023-04-22T05:31:16.991Z,58.31
2023-04-22T05:33:43.512Z,57.70
2023-04-22T05:36:09.847Z,56.94
2023-04-22T05:38:36.161Z,56.54
2023-04-22T05:41:02.580Z,56.94
2023-04-22T05:43:28.927Z,56.70
2023-04-22T05:45:55.619Z,55.95
2023-04-22T05:48:22.324Z,55.82
2023-04-22T05:50:48.678Z,55.56
2023-04-22T05:53:15.034Z,54.33
2023-04-22T05:55:41.492Z,54.49
2023-04-22T05:58:07.851Z,53.79
2023-04-22T06:00:34.186Z,52.22
2023-04-22T06:03:00.767Z,53.17
2023-04-22T06:05:27.383Z,51.17
2023-04-22T06:07:54.045Z,49.64
2023-04-22T06:10:20.488Z,48.93
2023-04-22T06:12:46.828Z,49.13
2023-04-22T06:15:14.179Z,49.76
2023-04-22T06:17:40.776Z,47.84
2023-04-22T06:20:07.511Z,48.78
2023-04-22T06:22:33.861Z,46.06
2023-04-22T06:25:00.274Z,46.85
2023-04-22T06:27:26.871Z,46.19
2023-04-22T06:29:53.264Z,47.58
2023-04-22T06:32:19.634Z,47.82
2023-04-22T06:34:45.949Z,48.11
2023-04-22T06:37:12.314Z,48.48
2023-04-22T06:39:38.927Z,49.16
2023-04-22T06:42:05.546Z,46.42
2023-04-22T06:44:32.569Z,48.19
2023-04-22T06:46:59.064Z,48.29
2023-04-22T06:49:25.544Z,48.31
2023-04-22T06:51:51.957Z,47.08
2023-04-22T06:54:18.385Z,46.82
2023-04-22T06:56:44.790Z,44.26
2023-04-22T06:59:11.133Z,42.40
2023-04-22T07:01:37.560Z,41.91
2023-04-22T07:04:04.149Z,42.30
2023-04-22T07:06:30.686Z,44.56
2023-04-22T07:08:57.074Z,43.94
2023-04-22T07:11:23.423Z,44.75
2023-04-22T07:13:49.822Z,45.52
2023-04-22T07:16:16.301Z,44.35
2023-04-22T07:18:42.724Z,44.27
2023-04-22T07:21:09.238Z,41.30
2023-04-22T07:23:35.786Z,41.48
2023-04-22T07:26:02.565Z,42.43
2023-04-22T07:28:29.859Z,41.79
2023-04-22T07:30:56.258Z,41.61
2023-04-22T07:33:22.796Z,42.36
2023-04-22T07:35:49.229Z,43.38
2023-04-22T07:38:15.651Z,41.71
2023-04-22T07:40:42.094Z,42.64
2023-04-22T07:43:08.602Z,40.99
2023-04-22T07:45:35.097Z,39.54
2023-04-22T07:48:01.499Z,41.61
2023-04-22T07:50:27.919Z,42.16
2023-04-22T07:52:54.365Z,40.58
2023-04-22T07:55:20.753Z,41.52
2023-04-22T07:57:47.091Z,40.12
2023-04-22T08:00:14.108Z,40.93
2023-04-22T08:02:41.049Z,40.31
2023-04-22T08:05:07.743Z,40.87
2023-04-22T08:07:34.523Z,42.90
2023-04-22T08:10:01.160Z,41.34
2023-04-22T08:12:27.514Z,41.26
2023-04-22T08:14:58.893Z,40.95
2023-04-22T08:17:25.457Z,40.09
2023-04-22T08:19:51.927Z,39.58
2023-04-22T08:22:18.931Z,40.94
2023-04-22T08:24:45.327Z,41.05
2023-04-22T08:27:11.835Z,41.02
2023-04-22T08:29:38.582Z,40.78
2023-04-22T08:32:05.362Z,41.73
2023-04-22T08:34:31.813Z,41.37
2023-04-22T08:36:58.270Z,41.50
2023-04-22T08:39:24.721Z,41.08
2023-04-22T08:41:51.067Z,38.42
2023-04-22T08:44:17.436Z,38.58
2023-04-22T08:46:47.008Z,39.90
2023-04-22T08:49:16.461Z,39.18
2023-04-22T08:51:43.638Z,40.69
2023-04-22T08:54:10.531Z,40.52
2023-04-22T08:56:37.258Z,40.82
2023-04-22T08:59:04.198Z,39.56
2023-04-22T09:01:31.422Z,39.27
2023-04-22T09:03:59.145Z,37.39
2023-04-22T09:06:25.600Z,38.09
2023-04-22T09:08:51.975Z,39.57
2023-04-22T09:11:18.302Z,38.74
2023-04-22T09:13:45.050Z,37.85
2023-04-22T09:16:11.533Z,38.54
2023-04-22T09:18:41.828Z,39.16
2023-04-22T09:21:08.401Z,36.03
2023-04-22T09:23:44.237Z,38.20
2023-04-22T09:26:10.630Z,39.91
2023-04-22T09:28:37.459Z,37.83
2023-04-22T09:31:03.927Z,38.16
2023-04-22T09:33:31.066Z,37.25
2023-04-22T09:35:57.490Z,36.86
2023-04-22T09:38:23.888Z,36.52
2023-04-22T09:40:50.231Z,37.23
2023-04-22T09:43:18.188Z,35.50
2023-04-22T09:45:44.587Z,37.63
2023-04-22T09:48:18.272Z,36.62
2023-04-22T09:50:45.456Z,37.38
2023-04-22T09:53:13.873Z,37.73
2023-04-22T09:55:41.574Z,36.75
2023-04-22T09:58:09.641Z,39.06
2023-04-22T10:00:39.845Z,37.97
2023-04-22T10:03:08.893Z,39.41
2023-04-22T10:05:37.853Z,37.25
2023-04-22T10:08:05.266Z,36.88
2023-04-22T10:10:31.950Z,38.42
2023-04-22T10:12:58.293Z,39.01
2023-04-22T10:15:26.872Z,35.99
2023-04-22T10:17:53.547Z,38.55
2023-04-22T10:20:21.021Z,38.32
2023-04-22T10:22:47.798Z,36.23
2023-04-22T10:25:26.880Z,37.58
2023-04-22T10:27:54.500Z,37.29
2023-04-22T10:30:31.243Z,37.39
2023-04-22T10:33:17.516Z,37.09
2023-04-22T10:36:03.884Z,36.86
2023-04-22T10:38:30.213Z,36.99
2023-04-22T10:41:00.146Z,36.29
2023-04-22T10:43:42.537Z,36.82
2023-04-22T10:46:28.935Z,34.45
2023-04-22T10:48:56.493Z,37.02
2023-04-22T10:51:38.342Z,35.38
2023-04-22T10:54:04.754Z,36.34
2023-04-22T10:56:31.095Z,34.98
2023-04-22T10:58:58.192Z,33.88
2023-04-22T11:01:27.451Z,35.68
2023-04-22T11:03:53.957Z,35.44
2023-04-22T11:06:22.301Z,33.92
2023-04-22T11:08:49.585Z,34.36
2023-04-22T11:11:19.011Z,35.66
2023-04-22T11:13:47.497Z,34.91
2023-04-22T11:16:13.959Z,35.14
2023-04-22T11:18:40.363Z,33.80
2023-04-22T11:21:08.408Z,35.81
2023-04-22T11:23:35.702Z,35.04
2023-04-22T11:26:03.389Z,36.34
2023-04-22T11:28:29.943Z,36.07
2023-04-22T11:31:06.543Z,34.87
2023-04-22T11:33:36.847Z,35.79
2023-04-22T11:36:03.316Z,34.94
2023-04-22T11:38:29.775Z,35.45
2023-04-22T11:40:57.765Z,34.15
2023-04-22T11:43:24.207Z,35.05
2023-04-22T11:45:50.782Z,35.87
2023-04-22T11:48:17.138Z,35.03
2023-04-22T11:50:48.134Z,34.92
2023-04-22T11:53:15.691Z,35.43
2023-04-22T11:55:42.193Z,37.03
2023-04-22T11:58:15.826Z,34.45
2023-04-22T12:00:45.958Z,36.97
2023-04-22T12:03:14.633Z,35.90
2023-04-22T12:05:41.650Z,34.69
2023-04-22T12:08:09.149Z,34.95
2023-04-22T12:10:39.669Z,36.43
2023-04-22T12:13:06.030Z,34.93
2023-04-22T12:15:42.538Z,34.56
2023-04-22T12:18:09.245Z,38.03
2023-04-22T12:20:36.094Z,35.06
2023-04-22T12:23:03.494Z,36.34
2023-04-22T12:25:29.950Z,34.62
2023-04-22T12:27:57.405Z,33.95
2023-04-22T12:30:24.925Z,35.43
2023-04-22T12:32:52.071Z,34.48
2023-04-22T12:35:18.534Z,34.51
2023-04-22T12:37:44.916Z,38.79
2023-04-22T12:40:11.667Z,36.11
2023-04-22T12:42:38.013Z,37.29
2023-04-22T12:45:04.575Z,36.70
2023-04-22T12:47:30.922Z,36.93
2023-04-22T12:49:58.535Z,35.22
2023-04-22T12:52:24.908Z,35.24
2023-04-22T12:54:51.417Z,34.99
2023-04-22T12:57:17.751Z,34.42
2023-04-22T12:59:47.249Z,35.35
2023-04-22T13:02:13.748Z,33.97
2023-04-22T13:04:40.854Z,33.45
2023-04-22T13:07:07.354Z,34.28
2023-04-22T13:09:33.776Z,33.74
2023-04-22T13:12:00.186Z,34.29
2023-04-22T13:14:26.909Z,34.51
2023-04-22T13:16:53.455Z,34.96
2023-04-22T13:19:19.835Z,33.60
2023-04-22T13:21:46.202Z,33.96
2023-04-22T13:24:12.527Z,34.04
2023-04-22T13:26:39.153Z,33.59
2023-04-22T13:29:11.021Z,35.19
2023-04-22T13:31:38.536Z,34.15
2023-04-22T13:34:04.953Z,35.68
2023-04-22T13:36:31.849Z,34.55
2023-04-22T13:38:58.203Z,34.29
2023-04-22T13:41:24.685Z,34.77
2023-04-22T13:43:54.303Z,35.34
2023-04-22T13:46:20.986Z,35.55
2023-04-22T13:48:47.953Z,34.96
2023-04-22T13:51:14.730Z,34.21
2023-04-22T13:53:41.143Z,34.77
2023-04-22T13:56:07.457Z,34.80
2023-04-22T13:58:33.824Z,34.54
2023-04-22T14:01:00.336Z,34.56
2023-04-22T14:03:28.340Z,34.96
2023-04-22T14:05:54.857Z,35.54
2023-04-22T14:08:21.251Z,34.58
2023-04-22T14:10:47.625Z,35.74
2023-04-22T14:13:14.057Z,35.22
2023-04-22T14:15:40.388Z,35.69
2023-04-22T14:18:06.782Z,36.20
2023-04-22T14:20:33.292Z,36.39
2023-04-22T14:23:00.928Z,36.57
2023-04-22T14:25:27.374Z,36.41
2023-04-22T14:27:54.000Z,36.29
2023-04-22T14:30:21.797Z,37.22
2023-04-22T14:32:48.459Z,37.02
2023-04-22T14:35:14.962Z,36.59
2023-04-22T14:37:43.446Z,36.47
2023-04-22T14:40:09.916Z,36.60
2023-04-22T14:42:36.277Z,36.86
2023-04-22T14:45:02.685Z,36.95
2023-04-22T14:47:29.852Z,36.79
2023-04-22T14:49:56.363Z,36.47
2023-04-22T14:52:22.766Z,36.84
2023-04-22T14:54:51.725Z,37.75
2023-04-22T14:57:18.454Z,38.36
2023-04-22T14:59:44.802Z,38.95
2023-04-22T15:02:15.618Z,39.06
2023-04-22T15:04:43.206Z,39.04
2023-04-22T15:07:09.937Z,39.53
2023-04-22T15:09:36.454Z,40.19
2023-04-22T15:12:05.238Z,40.61
2023-04-22T15:14:32.315Z,39.09
2023-04-22T15:16:58.731Z,39.73
2023-04-22T15:19:25.119Z,39.13
2023-04-22T15:21:51.443Z,39.72
2023-04-22T15:24:19.917Z,40.18
2023-04-22T15:26:46.845Z,39.68
2023-04-22T15:29:13.276Z,39.96
2023-04-22T15:31:39.653Z,40.20
2023-04-22T15:34:06.099Z,40.09
2023-04-22T15:36:33.222Z,40.60
2023-04-22T15:38:59.584Z,41.27
2023-04-22T15:41:26.148Z,41.53
2023-04-22T15:43:52.780Z,41.84
2023-04-22T15:46:19.431Z,42.23
2023-04-22T15:48:47.388Z,42.65
2023-04-22T15:51:16.812Z,42.95
2023-04-22T15:53:45.350Z,43.28
2023-04-22T15:56:12.234Z,43.44
2023-04-22T15:58:38.943Z,44.01
2023-04-22T16:01:18.151Z,43.57
2023-04-22T16:03:46.534Z,43.83
2023-04-22T16:06:13.036Z,44.70
2023-04-22T16:08:39.396Z,44.31
2023-04-22T16:11:05.967Z,44.40
2023-04-22T16:13:32.460Z,45.33
2023-04-22T16:15:58.952Z,44.93
2023-04-22T16:18:25.555Z,45.16
2023-04-22T16:20:52.736Z,44.77
2023-04-22T16:23:19.606Z,45.44
2023-04-22T16:25:46.014Z,45.65
2023-04-22T16:28:12.460Z,45.82
2023-04-22T16:30:39.046Z,46.00
2023-04-22T16:33:05.648Z,46.17
2023-04-22T16:35:32.112Z,45.92
2023-04-22T16:37:58.445Z,46.56
2023-04-22T16:40:24.819Z,45.95
2023-04-22T16:42:51.305Z,46.48
2023-04-22T16:45:17.647Z,47.03
2023-04-22T16:47:44.045Z,46.49
2023-04-22T16:50:12.203Z,47.14
2023-04-22T16:52:39.137Z,47.47
2023-04-22T16:55:06.053Z,47.28
2023-04-22T16:57:32.748Z,47.10
2023-04-22T16:59:59.177Z,47.34
2023-04-22T17:02:25.710Z,46.65
2023-04-22T17:04:52.195Z,47.48
2023-04-22T17:07:18.533Z,47.66
2023-04-22T17:09:45.079Z,48.75
2023-04-22T17:12:11.476Z,49.76
2023-04-22T17:14:37.843Z,48.51
2023-04-22T17:17:04.224Z,49.09
2023-04-22T17:19:30.777Z,49.36
2023-04-22T17:21:57.344Z,49.32
2023-04-22T17:24:24.833Z,49.51
2023-04-22T17:26:51.537Z,49.75
2023-04-22T17:29:21.546Z,50.15
2023-04-22T17:31:48.221Z,51.19
2023-04-22T17:34:15.145Z,51.10
2023-04-22T17:36:43.089Z,51.76
2023-04-22T17:39:10.071Z,52.61
2023-04-22T17:41:36.450Z,52.55
2023-04-22T17:44:02.831Z,53.20
2023-04-22T17:46:29.484Z,53.00
2023-04-22T17:48:55.979Z,53.38
2023-04-22T17:51:22.320Z,54.59
2023-04-22T17:53:51.302Z,54.03
2023-04-22T17:56:17.636Z,54.42
2023-04-22T17:58:44.053Z,54.79
2023-04-22T18:01:10.560Z,55.75
2023-04-22T18:03:37.084Z,56.42
2023-04-22T18:06:05.152Z,55.59
2023-04-22T18:08:31.657Z,56.69
2023-04-22T18:10:58.028Z,57.01
2023-04-22T18:13:24.361Z,56.72
2023-04-22T18:15:57.944Z,57.76
2023-04-22T18:18:24.318Z,58.38
2023-04-22T18:20:50.810Z,58.30
2023-04-22T18:23:17.217Z,57.04
2023-04-22T18:25:43.574Z,58.28
2023-04-22T18:28:09.966Z,58.10
2023-04-22T18:30:36.595Z,58.53
2023-04-22T18:33:04.693Z,60.05
2023-04-22T18:35:31.123Z,58.45
2023-04-22T18:37:57.469Z,58.55
2023-04-22T18:40:23.920Z,58.61
2023-04-22T18:42:50.433Z,59.40
2023-04-22T18:45:18.942Z,59.64
2023-04-22T18:47:47.933Z,58.93
2023-04-22T18:50:35.401Z,60.08
2023-04-22T18:53:01.791Z,60.28
2023-04-22T18:55:28.222Z,61.22
2023-04-22T18:57:54.687Z,60.50
2023-04-22T19:00:21.470Z,61.63
2023-04-22T19:02:48.080Z,61.67
2023-04-22T19:05:14.829Z,61.78
2023-04-22T19:07:44.493Z,62.27
2023-04-22T19:10:11.729Z,62.70
2023-04-22T19:12:38.108Z,63.41
2023-04-22T19:15:04.993Z,64.24
2023-04-22T19:17:31.671Z,65.69
2023-04-22T19:19:58.455Z,64.96
2023-04-22T19:22:25.016Z,66.20
2023-04-22T19:24:52.012Z,66.16
2023-04-22T19:27:18.949Z,65.75
2023-04-22T19:29:51.110Z,65.02
2023-04-22T19:32:17.621Z,65.44
2023-04-22T19:34:44.817Z,66.25
2023-04-22T19:37:11.315Z,67.17
2023-04-22T19:39:37.677Z,67.07
2023-04-22T19:42:04.336Z,66.69
2023-04-22T19:44:30.816Z,66.74
2023-04-22T19:46:57.415Z,66.33
2023-04-22T19:49:23.931Z,64.60
2023-04-22T19:51:50.815Z,65.09
2023-04-22T19:54:18.265Z,66.48
2023-04-22T19:56:45.252Z,66.58
2023-04-22T19:59:11.621Z,65.58
2023-04-22T20:01:38.373Z,67.30
2023-04-22T20:04:05.183Z,66.17
2023-04-22T20:06:32.505Z,67.51
2023-04-22T20:08:59.774Z,68.54
2023-04-22T20:11:26.696Z,67.11
2023-04-22T20:13:53.184Z,68.44
2023-04-22T20:16:20.743Z,68.99
2023-04-22T20:18:47.264Z,69.58
2023-04-22T20:21:13.896Z,68.73
2023-04-22T20:23:41.572Z,68.47
2023-04-22T20:26:08.442Z,67.95
2023-04-22T20:28:37.930Z,68.15
2023-04-22T20:31:04.418Z,68.24
2023-04-22T20:33:31.974Z,69.25
2023-04-22T20:36:00.777Z,68.38
2023-04-22T20:38:30.835Z,69.40
2023-04-22T20:40:57.243Z,69.81
2023-04-22T20:43:23.674Z,69.57
2023-04-22T20:45:50.073Z,69.61
2023-04-22T20:48:16.605Z,68.96
2023-04-22T20:50:43.084Z,69.60
2023-04-22T20:53:09.591Z,69.31
2023-04-22T20:55:37.241Z,70.04
2023-04-22T20:58:03.878Z,70.55
2023-04-22T21:00:30.280Z,70.29
2023-04-22T21:02:56.833Z,69.90
2023-04-22T21:05:23.453Z,70.00
2023-04-22T21:07:50.754Z,68.94
2023-04-22T21:10:17.471Z,69.04
2023-04-22T21:12:44.042Z,69.51
2023-04-22T21:15:10.865Z,70.08
2023-04-22T21:17:38.121Z,70.78
2023-04-22T21:20:05.649Z,70.37
2023-04-22T21:22:32.087Z,70.39
2023-04-22T21:24:58.636Z,71.29
2023-04-22T21:27:25.226Z,70.66
2023-04-22T21:29:51.748Z,69.86
2023-04-22T21:32:20.211Z,70.69
2023-04-22T21:34:46.821Z,70.57
2023-04-22T21:37:13.152Z,70.63
2023-04-22T21:39:39.895Z,71.39
2023-04-22T21:42:08.395Z,70.32
2023-04-22T21:44:36.237Z,70.30
2023-04-22T21:47:02.870Z,71.36
2023-04-22T21:49:29.256Z,71.14
2023-04-22T21:51:55.738Z,71.09
2023-04-22T21:54:22.188Z,70.71
2023-04-22T21:56:48.527Z,71.22
2023-04-22T21:59:14.846Z,70.48
2023-04-22T22:01:41.279Z,70.04
2023-04-22T22:04:07.799Z,70.47
2023-04-22T22:06:34.272Z,70.39
2023-04-22T22:09:01.273Z,69.52
2023-04-22T22:11:31.286Z,69.64
2023-04-22T22:13:58.150Z,69.93
2023-04-22T22:16:25.938Z,69.37
2023-04-22T22:18:52.459Z,69.47
2023-04-22T22:21:18.967Z,69.74
2023-04-22T22:23:45.370Z,69.84
2023-04-22T22:26:13.022Z,70.92
2023-04-22T22:28:39.745Z,70.73
2023-04-22T22:31:06.895Z,70.35
2023-04-22T22:33:33.261Z,70.46
2023-04-22T22:35:59.618Z,70.74
2023-04-22T22:38:26.050Z,70.17
2023-04-22T22:40:52.502Z,70.37
2023-04-22T22:43:18.853Z,69.43
2023-04-22T22:45:45.587Z,68.94
2023-04-22T22:48:11.997Z,69.62
2023-04-22T22:50:38.906Z,69.87
2023-04-22T22:53:05.298Z,70.04
2023-04-22T22:55:33.896Z,70.01
2023-04-22T22:58:00.285Z,69.97
2023-04-22T23:00:26.713Z,70.38
2023-04-22T23:02:53.166Z,70.63
2023-04-22T23:05:20.539Z,69.96
2023-04-22T23:07:46.907Z,70.83
2023-04-22T23:10:13.694Z,70.52
2023-04-22T23:12:40.310Z,70.47
2023-04-22T23:15:08.140Z,70.81
2023-04-22T23:17:35.020Z,70.91
2023-04-22T23:20:01.645Z,69.76
2023-04-22T23:22:29.859Z,70.66
2023-04-22T23:24:56.427Z,70.18
2023-04-22T23:27:22.931Z,70.54
2023-04-22T23:29:49.381Z,70.39
2023-04-22T23:32:16.267Z,72.25
2023-04-22T23:34:44.756Z,72.12
2023-04-22T23:37:14.112Z,71.18
2023-04-22T23:39:41.899Z,72.04
2023-04-22T23:42:08.291Z,70.95
2023-04-22T23:44:34.707Z,71.14
2023-04-22T23:47:01.234Z,71.99
2023-04-22T23:49:28.853Z,71.34
2023-04-22T23:51:55.682Z,71.14
2023-04-22T23:54:25.776Z,70.78
2023-04-22T23:56:52.476Z,69.46
2023-04-22T23:59:19.024Z,68.22
